Time;durP1;ratioP1;P1;durP2;ratioP2;P2;SDS_P1;SDS_P2;PMS_P1;PMS_P2;Temp;Humidity;BMP_temperature;BMP_pressure;BME280_temperature;BME280_humidity;BME280_pressure;Samples;Min_cycle;Max_cycle;Signal;HPM_P1;HPM_P2
2022/05/17 00:02:17;;;;;;;0.85;0.47;;;;;;;25.22;50.40;100783.31;5026759;28;20402;-74
2022/05/17 00:04:43;;;;;;;1.35;0.40;;;;;;;25.21;50.23;100779.84;5029525;28;20355;-73
2022/05/17 00:07:09;;;;;;;1.73;0.40;;;;;;;25.21;50.10;100771.03;5019943;28;20367;-75
2022/05/17 00:09:34;;;;;;;1.77;0.30;;;;;;;25.21;50.42;100768.38;5023373;28;20040;-74
2022/05/17 00:12:00;;;;;;;1.27;0.60;;;;;;;25.21;50.60;100771.03;5026085;28;20034;-74
2022/05/17 00:14:27;;;;;;;1.10;0.40;;;;;;;25.24;50.72;100771.38;5028046;28;20052;-70
2022/05/17 00:16:53;;;;;;;1.77;0.52;;;;;;;25.23;51.04;100764.44;5027100;28;20021;-72
2022/05/17 00:19:20;;;;;;;0.88;0.45;;;;;;;25.24;51.39;100755.38;5026682;28;20068;-71
2022/05/17 00:21:47;;;;;;;1.92;0.70;;;;;;;25.25;51.45;100758.84;5026854;28;20036;-74
2022/05/17 00:24:14;;;;;;;1.92;0.40;;;;;;;25.21;51.56;100761.19;5020146;28;20030;-71
2022/05/17 00:26:40;;;;;;;2.05;0.50;;;;;;;25.19;51.51;100757.94;5022201;28;20029;-72
2022/05/17 00:29:06;;;;;;;4.93;0.60;;;;;;;25.21;51.28;100761.19;5023458;28;20401;-71
2022/05/17 00:31:33;;;;;;;2.28;0.65;;;;;;;25.24;51.34;100759.91;5027621;28;20132;-72
2022/05/17 00:33:59;;;;;;;1.13;0.60;;;;;;;25.24;51.39;100763.38;5026255;28;20025;-72
2022/05/17 00:36:24;;;;;;;3.60;0.50;;;;;;;25.26;51.22;100763.16;5028628;28;20567;-71
2022/05/17 00:38:50;;;;;;;1.70;0.50;;;;;;;25.26;51.09;100747.16;5024683;28;20111;-73
2022/05/17 00:41:16;;;;;;;1.45;0.40;;;;;;;25.27;51.06;100754.09;5028924;28;20029;-72
2022/05/17 00:46:45;;;;;;;1.52;0.43;;;;;;;25.23;51.34;100753.75;5026153;28;20127;-72
2022/05/17 00:49:13;;;;;;;2.65;0.50;;;;;;;25.24;51.32;100747.38;5025227;28;20036;-73
2022/05/17 00:51:41;;;;;;;2.85;0.52;;;;;;;25.23;51.34;100751.09;5019440;28;20120;-70
2022/05/17 00:54:10;;;;;;;2.80;0.50;;;;;;;25.23;51.31;100753.75;5025138;28;20473;-72
2022/05/17 00:56:43;;;;;;;2.10;0.50;;;;;;;25.22;51.32;100754.00;5027138;28;20120;-71
2022/05/17 00:59:09;;;;;;;4.03;0.55;;;;;;;25.21;51.47;100750.50;5022455;28;20489;-73
2022/05/17 01:01:36;;;;;;;4.20;0.70;;;;;;;25.22;51.33;100762.00;5025464;28;20112;-71
2022/05/17 01:04:32;;;;;;;2.88;0.60;;;;;;;25.18;51.50;100758.97;5023991;28;20436;-72
2022/05/17 01:07:08;;;;;;;1.95;0.40;;;;;;;25.17;51.43;100759.22;5015233;28;20482;-71
2022/05/17 01:09:33;;;;;;;1.50;0.60;;;;;;;25.16;51.66;100747.72;5020440;28;20584;-74
2022/05/17 01:11:59;;;;;;;1.55;0.55;;;;;;;25.16;51.80;100741.59;5022726;28;20030;-72
2022/05/17 01:17:09;;;;;;;3.25;0.50;;;;;;;25.13;51.76;100737.53;5027405;28;20095;-70
2022/05/17 01:19:39;;;;;;;3.05;0.73;;;;;;;25.14;51.63;100744.50;5026858;28;20053;-71
2022/05/17 01:22:05;;;;;;;2.58;0.50;;;;;;;25.14;51.49;100744.50;5023027;28;20165;-73
2022/05/17 01:24:31;;;;;;;5.03;0.50;;;;;;;25.15;51.67;100740.78;5025377;28;20037;-71
2022/05/17 01:27:03;;;;;;;0.85;0.50;;;;;;;25.13;51.82;100742.88;5026633;28;20018;-71
2022/05/17 01:29:36;;;;;;;3.15;0.43;;;;;;;25.13;51.63;100735.69;5020099;28;20053;-71
2022/05/17 01:32:02;;;;;;;1.05;0.38;;;;;;;25.14;51.62;100739.97;5020599;28;20029;-73
2022/05/17 01:34:27;;;;;;;2.10;0.30;;;;;;;25.16;51.69;100741.59;5024811;28;20497;-73
2022/05/17 01:36:53;;;;;;;0.98;0.40;;;;;;;25.16;51.60;100742.41;5029449;28;20025;-73
2022/05/17 01:39:19;;;;;;;3.78;0.57;;;;;;;25.17;51.39;100740.53;5030366;28;20037;-73
2022/05/17 01:41:44;;;;;;;0.70;0.40;;;;;;;25.16;51.52;100734.41;5031629;28;20033;-73
2022/05/17 01:44:10;;;;;;;1.77;0.40;;;;;;;25.16;51.52;100739.72;5033432;28;20049;-72
2022/05/17 01:46:35;;;;;;;3.45;0.60;;;;;;;25.17;51.69;100737.88;5031465;28;20059;-73
2022/05/17 01:49:01;;;;;;;0.93;0.30;;;;;;;25.17;51.38;100738.69;5033292;28;20031;-73
2022/05/17 01:51:26;;;;;;;2.15;0.40;;;;;;;25.16;51.44;100737.06;5028733;28;20490;-74
2022/05/17 01:53:52;;;;;;;4.25;0.50;;;;;;;25.16;51.58;100729.06;5031707;28;20500;-74
2022/05/17 01:56:17;;;;;;;1.30;0.40;;;;;;;25.17;51.46;100733.34;5033215;28;20033;-71
2022/05/17 01:58:42;;;;;;;0.85;0.40;;;;;;;25.17;51.53;100722.69;5034050;28;20043;-74
2022/05/17 02:01:09;;;;;;;3.13;0.60;;;;;;;25.17;51.64;100728.03;5031062;28;20033;-74
2022/05/17 02:03:35;;;;;;;4.90;0.50;;;;;;;25.17;51.37;100719.22;5032764;28;20053;-73
2022/05/17 02:06:00;;;;;;;0.98;0.40;;;;;;;25.18;51.51;100718.19;5029934;28;20470;-72
2022/05/17 02:08:26;;;;;;;5.45;0.60;;;;;;;25.16;51.46;100710.41;5030964;28;20089;-73
2022/05/17 02:10:52;;;;;;;3.60;0.57;;;;;;;25.18;51.37;100712.84;5028377;28;20029;-72
2022/05/17 02:13:18;;;;;;;3.92;0.40;;;;;;;25.17;51.90;100714.69;5027732;28;20030;-74
2022/05/17 02:15:44;;;;;;;3.17;0.30;;;;;;;25.17;51.47;100717.38;5014010;28;20025;-74
2022/05/17 02:18:10;;;;;;;3.85;0.50;;;;;;;25.17;51.52;100711.22;5028969;28;20040;-72
2022/05/17 02:20:36;;;;;;;3.45;0.50;;;;;;;25.16;51.46;100715.75;5032736;28;20030;-72
2022/05/17 02:23:01;;;;;;;1.77;0.30;;;;;;;25.16;51.59;100714.94;5029912;28;20025;-73
2022/05/17 02:25:27;;;;;;;2.75;0.50;;;;;;;25.09;51.58;100715.06;5033096;28;20122;-75
2022/05/17 02:27:53;;;;;;;2.08;0.40;;;;;;;25.10;51.55;100719.34;5032253;28;20042;-72
2022/05/17 02:30:19;;;;;;;2.05;0.40;;;;;;;25.09;51.63;100718.53;5048942;28;20071;-74
2022/05/17 02:32:44;;;;;;;1.00;0.40;;;;;;;25.09;51.66;100721.19;5027968;28;20068;-72
2022/05/17 02:35:12;;;;;;;1.13;0.40;;;;;;;25.08;51.57;100729.44;5032856;28;20025;-72
2022/05/17 02:37:38;;;;;;;3.28;0.30;;;;;;;25.08;51.52;100729.44;5030562;28;20025;-74
2022/05/17 02:40:05;;;;;;;1.45;0.45;;;;;;;25.08;51.61;100735.56;5036934;28;20025;-73
2022/05/17 02:42:30;;;;;;;1.17;0.38;;;;;;;25.09;51.66;100723.84;5036521;28;20437;-74
2022/05/17 02:44:55;;;;;;;1.05;0.40;;;;;;;25.08;51.54;100719.56;5031447;28;20130;-73
2022/05/17 02:47:21;;;;;;;0.60;0.30;;;;;;;25.07;51.58;100714.47;5010680;28;20033;-72
2022/05/17 02:49:46;;;;;;;0.70;0.28;;;;;;;25.07;51.56;100717.13;5029332;28;20069;-73
2022/05/17 02:52:13;;;;;;;2.95;0.50;;;;;;;25.08;51.82;100724.09;5027571;28;20049;-73
2022/05/17 02:54:39;;;;;;;0.55;0.30;;;;;;;25.07;51.59;100723.28;5037107;28;20079;-73
2022/05/17 02:57:06;;;;;;;1.38;0.28;;;;;;;25.08;51.48;100718.75;5034953;28;20033;-74
2022/05/17 02:59:31;;;;;;;2.72;0.60;;;;;;;25.06;51.47;100716.31;5050390;28;20033;-73
2022/05/17 03:01:59;;;;;;;4.43;0.38;;;;;;;25.03;51.52;100716.00;5030557;28;20496;-72
2022/05/17 03:04:26;;;;;;;1.00;0.30;;;;;;;25.03;51.69;100726.69;5028727;28;20044;-72
2022/05/17 03:06:53;;;;;;;2.15;0.60;;;;;;;25.01;51.55;100715.44;5031680;28;20478;-73
2022/05/17 03:09:18;;;;;;;1.42;0.50;;;;;;;25.00;51.86;100717.28;5047596;28;20479;-74
2022/05/17 03:11:44;;;;;;;2.63;0.50;;;;;;;24.99;51.72;100720.19;5028627;28;20034;-75
2022/05/17 03:14:11;;;;;;;2.05;0.30;;;;;;;24.98;51.78;100715.91;5023686;28;20552;-72
2022/05/17 03:16:37;;;;;;;2.03;0.50;;;;;;;24.96;51.74;100716.13;5028715;28;20029;-75
2022/05/17 03:19:03;;;;;;;1.50;0.40;;;;;;;24.97;51.89;100724.94;5049991;28;20040;-75
2022/05/17 03:21:29;;;;;;;1.48;0.30;;;;;;;24.95;51.65;100719.00;5048299;28;20033;-73
2022/05/17 03:23:54;;;;;;;1.52;0.40;;;;;;;24.95;51.96;100721.66;5027338;28;20532;-73
2022/05/17 03:26:20;;;;;;;0.85;0.32;;;;;;;24.95;51.71;100727.00;5028995;28;20036;-74
2022/05/17 03:28:45;;;;;;;0.70;0.30;;;;;;;24.95;51.89;100724.31;5027800;28;20091;-73
2022/05/17 03:31:11;;;;;;;0.90;0.40;;;;;;;24.95;51.83;100727.81;5029315;28;20037;-75
2022/05/17 03:33:38;;;;;;;1.48;0.40;;;;;;;24.95;51.76;100729.66;5022066;28;20414;-72
2022/05/17 03:36:04;;;;;;;0.95;0.30;;;;;;;24.96;51.81;100723.31;5026342;28;20017;-73
2022/05/17 03:38:30;;;;;;;1.08;0.40;;;;;;;24.96;51.79;100720.66;5027909;28;20033;-74
2022/05/17 03:40:58;;;;;;;2.22;0.50;;;;;;;24.97;51.88;100727.59;5026837;28;20029;-71
2022/05/17 03:43:24;;;;;;;1.20;0.30;;;;;;;24.98;51.93;100724.72;5021537;28;20040;-73
2022/05/17 03:45:50;;;;;;;2.10;0.43;;;;;;;25.00;51.84;100724.47;5026548;28;20021;-72
2022/05/17 03:48:15;;;;;;;2.28;0.38;;;;;;;25.00;51.77;100722.63;5029794;28;20036;-72
2022/05/17 03:50:42;;;;;;;2.15;0.40;;;;;;;25.00;51.80;100727.94;5027863;28;20104;-74
2022/05/17 03:53:08;;;;;;;2.80;0.70;;;;;;;25.01;51.83;100734.09;5026638;28;20493;-71
2022/05/17 03:55:34;;;;;;;1.13;0.40;;;;;;;25.01;51.58;100731.44;5024418;28;20037;-73
2022/05/17 03:57:59;;;;;;;2.05;0.40;;;;;;;25.03;51.69;100732.00;5024910;28;20036;-72
2022/05/17 04:00:25;;;;;;;2.33;0.45;;;;;;;25.02;51.75;100731.19;5028712;28;20454;-76
2022/05/17 04:02:50;;;;;;;3.70;0.45;;;;;;;25.02;51.52;100736.53;5026755;28;20025;-72
2022/05/17 04:05:17;;;;;;;2.83;0.40;;;;;;;25.03;51.61;100737.34;5025975;28;20036;-73
2022/05/17 04:07:43;;;;;;;1.55;0.40;;;;;;;25.03;51.31;100740.00;5024671;28;20078;-72
2022/05/17 04:10:11;;;;;;;1.27;0.43;;;;;;;25.03;51.47;100737.34;5027849;28;20033;-75
2022/05/17 04:12:37;;;;;;;3.00;0.60;;;;;;;25.01;51.41;100742.91;5023307;28;20037;-73
2022/05/17 04:15:08;;;;;;;0.80;0.30;;;;;;;24.99;51.30;100738.84;5025000;28;20162;-72
2022/05/17 04:17:34;;;;;;;1.38;0.40;;;;;;;24.96;51.61;100742.78;5025524;28;20029;-74
2022/05/17 04:20:00;;;;;;;1.13;0.40;;;;;;;24.97;51.60;100743.59;5018436;28;20438;-71
2022/05/17 04:22:26;;;;;;;1.33;0.40;;;;;;;24.96;52.11;100747.31;5018601;28;20030;-71
2022/05/17 04:24:58;;;;;;;1.45;0.52;;;;;;;25.00;52.76;100748.47;5028525;28;20096;-71
2022/05/17 04:27:25;;;;;;;8.18;1.35;;;;;;;25.07;54.52;100751.78;5023582;28;20116;-71
2022/05/17 04:29:51;;;;;;;2.78;0.73;;;;;;;25.09;54.22;100760.38;5025990;28;20048;-75
2022/05/17 04:32:17;;;;;;;0.90;0.50;;;;;;;25.04;53.29;100754.94;5026223;28;20060;-73
2022/05/17 04:34:43;;;;;;;4.63;0.60;;;;;;;25.02;52.90;100757.84;5023042;28;20033;-72
2022/05/17 04:37:08;;;;;;;3.53;0.40;;;;;;;24.98;52.57;100756.69;5023904;28;20071;-73
2022/05/17 04:39:34;;;;;;;1.73;0.50;;;;;;;24.97;52.47;100748.94;5023740;28;20128;-74
2022/05/17 04:42:00;;;;;;;1.05;0.60;;;;;;;24.97;52.46;100754.25;5027758;28;20033;-77
2022/05/17 04:44:27;;;;;;;3.05;0.60;;;;;;;24.96;52.69;100752.63;5027740;28;20029;-76
2022/05/17 04:46:52;;;;;;;3.17;0.50;;;;;;;24.96;52.75;100752.63;5027630;28;20707;-71
2022/05/17 04:49:19;;;;;;;4.00;0.90;;;;;;;24.93;52.95;100751.22;5024659;28;20041;-70
2022/05/17 04:51:44;;;;;;;2.92;0.60;;;;;;;24.96;52.96;100764.09;5023822;28;20032;-72
2022/05/17 04:54:11;;;;;;;2.78;0.68;;;;;;;24.96;52.85;100752.63;5026015;28;20440;-72
2022/05/17 04:56:36;;;;;;;3.03;0.40;;;;;;;24.96;52.83;100760.63;5032904;28;20504;-72
2022/05/17 04:59:02;;;;;;;1.35;0.50;;;;;;;24.97;52.97;100755.06;5025470;28;20024;-72
2022/05/17 05:01:28;;;;;;;1.75;0.40;;;;;;;24.97;52.84;100759.59;5021047;28;20102;-73
2022/05/17 05:03:54;;;;;;;3.97;0.50;;;;;;;24.97;52.84;100757.72;5025598;28;20029;-73
2022/05/17 05:06:19;;;;;;;1.48;0.50;;;;;;;24.98;52.96;100771.88;5028820;28;20044;-70
2022/05/17 05:08:45;;;;;;;2.28;0.50;;;;;;;24.97;52.78;100776.38;5024709;28;20056;-71
2022/05/17 05:11:10;;;;;;;3.17;0.55;;;;;;;24.97;52.88;100771.06;5026450;28;20459;-73
2022/05/17 05:13:35;;;;;;;1.45;0.52;;;;;;;24.98;52.77;100771.88;5027006;28;20026;-72
2022/05/17 05:16:01;;;;;;;4.68;0.60;;;;;;;24.98;52.92;100777.19;5027093;28;20029;-75
2022/05/17 05:18:27;;;;;;;1.15;0.40;;;;;;;24.98;52.91;100769.22;5026742;28;20033;-72
2022/05/17 05:21:04;;;;;;;2.88;0.40;;;;;;;24.96;52.92;100766.78;5026665;28;20421;-74
2022/05/17 05:23:29;;;;;;;2.65;0.60;;;;;;;24.97;52.97;100771.06;5024864;28;20087;-72
2022/05/17 05:26:01;;;;;;;0.77;0.38;;;;;;;24.96;52.71;100773.97;5028162;28;20029;-74
2022/05/17 05:28:28;;;;;;;1.38;0.35;;;;;;;24.98;52.76;100774.53;5026475;28;20040;-74
2022/05/17 05:30:56;;;;;;;1.90;0.43;;;;;;;24.99;52.57;100782.31;5026689;28;20475;-75
2022/05/17 05:33:22;;;;;;;2.63;0.47;;;;;;;24.99;52.64;100779.63;5026912;28;20117;-73
2022/05/17 05:35:48;;;;;;;0.90;0.30;;;;;;;24.99;52.61;100779.63;5028123;28;20045;-74
2022/05/17 05:38:14;;;;;;;0.60;0.40;;;;;;;25.01;52.54;100776.75;5025615;28;20084;-72
2022/05/17 05:40:41;;;;;;;0.80;0.30;;;;;;;25.01;52.70;100787.41;5027829;28;20026;-72
2022/05/17 05:43:07;;;;;;;2.50;0.55;;;;;;;25.01;52.62;100792.72;5026699;28;20118;-73
2022/05/17 05:45:33;;;;;;;1.15;0.32;;;;;;;25.01;52.54;100792.72;5026303;28;20346;-72
2022/05/17 05:47:59;;;;;;;2.38;0.50;;;;;;;25.01;52.50;100792.72;5025065;28;20247;-74
2022/05/17 05:50:25;;;;;;;2.90;0.65;;;;;;;25.01;52.53;100803.41;5020829;28;20037;-74
2022/05/17 05:52:50;;;;;;;1.30;0.50;;;;;;;25.00;52.72;100791.91;5026052;28;20113;-73
2022/05/17 05:55:21;;;;;;;0.73;0.30;;;;;;;24.98;52.62;100791.34;5027632;28;20401;-73
2022/05/17 05:57:48;;;;;;;1.58;0.40;;;;;;;24.99;52.75;100794.81;5026676;28;20106;-72
2022/05/17 06:00:18;;;;;;;1.38;0.40;;;;;;;24.99;52.86;100802.81;5023389;28;20037;-73
2022/05/17 06:02:43;;;;;;;0.90;0.40;;;;;;;25.00;52.79;100799.09;5027572;28;20030;-73
2022/05/17 06:05:10;;;;;;;2.60;0.32;;;;;;;24.98;52.69;100802.00;5025877;28;20095;-74
2022/05/17 06:07:35;;;;;;;1.20;0.32;;;;;;;24.99;52.67;100798.28;5027917;28;20354;-72
2022/05/17 06:10:03;;;;;;;2.58;0.63;;;;;;;25.00;52.75;100807.09;5026119;28;20032;-71
2022/05/17 06:12:28;;;;;;;1.60;0.50;;;;;;;24.99;52.72;100808.16;5027695;28;20030;-74
2022/05/17 06:14:54;;;;;;;1.45;0.40;;;;;;;24.99;52.54;100822.28;5025270;28;20374;-74
2022/05/17 06:17:24;;;;;;;0.85;0.40;;;;;;;24.98;52.48;100809.19;5027802;28;20021;-71
2022/05/17 06:19:49;;;;;;;1.25;0.50;;;;;;;24.98;52.66;100809.19;5024908;28;20522;-73
2022/05/17 06:22:15;;;;;;;3.40;0.40;;;;;;;24.98;52.59;100806.53;5030985;28;20036;-77
2022/05/17 06:24:40;;;;;;;0.63;0.30;;;;;;;24.99;52.58;100805.47;5022720;28;20343;-73
2022/05/17 06:27:06;;;;;;;2.67;0.50;;;;;;;24.99;52.61;100810.81;5027260;28;20044;-73
2022/05/17 06:29:31;;;;;;;1.50;0.40;;;;;;;24.99;53.23;100810.81;5033232;28;20051;-76
2022/05/17 06:31:56;;;;;;;6.15;0.57;;;;;;;25.00;53.45;100807.91;5036588;28;20025;-74
2022/05/17 06:34:22;;;;;;;2.70;0.65;;;;;;;25.04;53.60;100813.59;5027134;28;20045;-75
2022/05/17 06:36:47;;;;;;;4.82;0.90;;;;;;;25.07;54.17;100807.78;5046579;28;20111;-72
2022/05/17 06:39:13;;;;;;;3.53;0.70;;;;;;;25.06;54.42;100814.97;5016980;28;20492;-72
2022/05/17 06:41:38;;;;;;;1.73;0.60;;;;;;;25.06;54.51;100808.81;5036764;28;20104;-74
2022/05/17 06:44:05;;;;;;;3.00;0.40;;;;;;;25.03;54.36;100804.78;5028670;28;20040;-73
2022/05/17 06:46:30;;;;;;;5.03;0.75;;;;;;;25.02;54.55;100811.16;5018201;28;20112;-73
2022/05/17 06:48:56;;;;;;;3.95;1.17;;;;;;;25.00;54.62;100813.25;5031501;28;20564;-73
2022/05/17 06:51:21;;;;;;;1.20;0.30;;;;;;;24.99;54.41;100805.47;5030277;28;20037;-74
2022/05/17 06:53:48;;;;;;;4.18;0.95;;;;;;;24.99;54.58;100808.97;5034322;28;20031;-74
2022/05/17 06:56:13;;;;;;;6.75;0.45;;;;;;;24.99;54.49;100813.47;5042367;28;20077;-74
2022/05/17 06:58:39;;;;;;;2.17;0.73;;;;;;;24.99;54.43;100816.13;5030508;28;20061;-74
2022/05/17 07:01:04;;;;;;;2.58;0.52;;;;;;;25.00;54.46;100813.25;5027891;28;20535;-74
2022/05/17 07:03:30;;;;;;;2.47;0.50;;;;;;;24.99;53.84;100816.13;5028997;28;20440;-72
2022/05/17 07:05:55;;;;;;;1.23;0.45;;;;;;;25.00;54.42;100813.25;5040512;28;20041;-75
2022/05/17 07:08:22;;;;;;;3.72;0.65;;;;;;;25.02;54.71;100818.34;5034648;28;20025;-74
2022/05/17 07:13:32;;;;;;;1.00;0.32;;;;;;;25.03;54.56;100817.31;5030497;28;20040;-74
2022/05/17 07:15:57;;;;;;;2.20;0.60;;;;;;;25.04;54.36;100818.94;5030463;28;20393;-74
2022/05/17 07:18:26;;;;;;;1.38;0.50;;;;;;;25.04;54.16;100819.75;5030368;28;20025;-74
2022/05/17 07:20:52;;;;;;;5.72;0.60;;;;;;;25.05;54.30;100817.84;5028807;28;20064;-74
2022/05/17 07:23:18;;;;;;;1.08;0.40;;;;;;;25.06;54.08;100822.16;5041151;28;20145;-73
2022/05/17 07:25:45;;;;;;;2.92;0.40;;;;;;;25.05;54.18;100813.34;5024656;28;20303;-76
2022/05/17 07:28:17;;;;;;;1.65;0.60;;;;;;;25.06;54.20;100822.97;5027320;28;20093;-75
2022/05/17 07:30:43;;;;;;;2.60;0.45;;;;;;;25.06;54.00;100827.47;5022852;28;20060;-72
2022/05/17 07:33:08;;;;;;;3.95;0.40;;;;;;;25.05;54.02;100821.34;5024855;28;20044;-75
2022/05/17 07:35:34;;;;;;;1.73;0.40;;;;;;;25.04;53.59;100833.06;5027785;28;20025;-73
2022/05/17 07:38:01;;;;;;;2.20;0.40;;;;;;;25.04;53.94;100829.59;5025237;28;20492;-74
2022/05/17 07:40:27;;;;;;;4.28;0.40;;;;;;;25.02;53.89;100823.69;5026366;28;20028;-75
2022/05/17 07:42:52;;;;;;;1.38;0.73;;;;;;;25.00;54.13;100825.75;5029895;28;20033;-75
2022/05/17 07:45:18;;;;;;;2.03;0.40;;;;;;;25.00;54.05;100825.75;5029868;28;20021;-74
2022/05/17 07:47:43;;;;;;;4.88;0.70;;;;;;;24.98;53.86;100826.00;5029835;28;20381;-74
2022/05/17 07:50:09;;;;;;;4.57;0.40;;;;;;;24.97;53.82;100834.22;5028476;28;20497;-75
2022/05/17 07:52:34;;;;;;;5.20;0.52;;;;;;;24.95;53.81;100820.28;5028836;28;20037;-73
2022/05/17 07:55:01;;;;;;;4.38;0.50;;;;;;;24.93;53.88;100817.84;5028894;28;20064;-72
2022/05/17 07:57:27;;;;;;;2.40;0.70;;;;;;;24.93;53.72;100822.34;5029649;28;20083;-74
2022/05/17 07:59:53;;;;;;;6.13;0.50;;;;;;;24.93;53.50;100812.50;5029475;28;20389;-73
2022/05/17 08:02:18;;;;;;;2.55;0.63;;;;;;;24.93;53.69;100809.03;5028143;28;20033;-74
2022/05/17 08:04:44;;;;;;;3.15;0.75;;;;;;;24.92;53.66;100810.06;5026599;28;20116;-73
2022/05/17 08:07:09;;;;;;;3.58;0.57;;;;;;;24.92;53.82;100802.91;5028442;28;20034;-73
2022/05/17 08:09:35;;;;;;;2.00;0.60;;;;;;;24.92;53.65;100802.91;5029353;28;20166;-73
2022/05/17 08:12:03;;;;;;;3.63;0.70;;;;;;;24.91;53.61;100797.78;5028141;28;20171;-73
2022/05/17 08:14:28;;;;;;;7.03;1.00;;;;;;;24.91;53.49;100800.47;5029289;28;20108;-74
2022/05/17 08:16:53;;;;;;;1.63;0.50;;;;;;;24.91;53.45;100808.44;5029138;28;20151;-76
2022/05/17 08:19:19;;;;;;;3.13;0.75;;;;;;;24.92;53.58;100807.41;5029285;28;20030;-72
2022/05/17 08:21:45;;;;;;;1.52;0.40;;;;;;;24.92;53.45;100804.75;5028002;28;20037;-74
2022/05/17 08:24:10;;;;;;;3.17;0.40;;;;;;;24.92;53.16;100804.75;5029136;28;20022;-73
2022/05/17 08:29:19;;;;;;;0.70;0.50;;;;;;;24.91;52.96;100797.78;5028444;28;20811;-75
2022/05/17 08:33:14;;;;;;;4.13;0.80;;;;;;;24.91;52.74;100803.13;5029092;28;20148;-74
2022/05/17 08:34:31;;;;;;;2.20;0.60;;;;;;;24.88;52.57;100798.25;5029037;28;20030;-73
2022/05/17 08:36:56;;;;;;;3.30;0.82;;;;;;;24.88;52.63;100793.72;5029474;28;20118;-73
2022/05/17 08:39:21;;;;;;;2.05;0.70;;;;;;;24.88;52.51;100792.91;5028252;28;20029;-74
2022/05/17 08:41:53;;;;;;;1.73;0.50;;;;;;;24.87;52.73;100801.97;5027876;28;20025;-73
2022/05/17 08:44:34;;;;;;;1.40;0.80;;;;;;;24.87;52.55;100796.63;5028168;28;20064;-73
2022/05/17 08:47:05;;;;;;;1.73;0.55;;;;;;;24.88;52.36;100798.25;5028807;28;20029;-75
2022/05/17 08:49:45;;;;;;;2.35;0.90;;;;;;;24.91;52.42;100795.94;5025714;28;20068;-74
2022/05/17 08:52:22;;;;;;;2.28;0.90;;;;;;;24.90;52.38;100791.66;5028050;28;20120;-74
2022/05/17 08:55:02;;;;;;;4.00;0.80;;;;;;;24.92;52.50;100796.75;5028736;28;20427;-74
2022/05/17 08:57:31;;;;;;;2.65;0.80;;;;;;;24.93;52.30;100793.03;5027132;28;20108;-76
2022/05/17 09:00:04;;;;;;;1.25;0.60;;;;;;;24.92;52.09;100794.09;5027247;28;20498;-73
2022/05/17 09:02:44;;;;;;;2.90;0.75;;;;;;;24.94;52.32;100786.66;5026553;28;20021;-74
2022/05/17 09:05:33;;;;;;;1.05;0.60;;;;;;;24.92;52.23;100788.75;5025216;28;20041;-73
2022/05/17 09:08:07;;;;;;;4.68;0.77;;;;;;;24.92;52.29;100786.09;5020819;28;20512;-71
2022/05/17 09:10:38;;;;;;;1.33;0.40;;;;;;;24.94;52.07;100792.00;5008626;28;20088;-73
2022/05/17 09:13:33;;;;;;;2.17;0.70;;;;;;;24.94;52.20;100797.34;5028126;28;20280;-73
2022/05/17 09:15:59;;;;;;;1.42;0.70;;;;;;;24.93;51.93;100788.53;5025213;28;20037;-72
2022/05/17 09:18:28;;;;;;;1.38;0.60;;;;;;;24.93;51.98;100785.84;5028453;28;20589;-72
2022/05/17 09:20:54;;;;;;;2.92;0.63;;;;;;;24.93;52.03;100788.53;5028629;28;20369;-73
2022/05/17 09:23:19;;;;;;;1.50;0.60;;;;;;;24.94;51.82;100784.00;5027147;28;20030;-73
2022/05/17 09:25:56;;;;;;;2.25;0.57;;;;;;;24.92;51.68;100783.44;5028184;28;20547;-71
2022/05/17 09:28:46;;;;;;;0.93;0.50;;;;;;;24.93;51.68;100788.53;5008607;28;20036;-73
2022/05/17 09:31:17;;;;;;;1.35;0.68;;;;;;;24.94;51.56;100782.16;5027886;28;20037;-72
2022/05/17 09:33:43;;;;;;;1.63;0.70;;;;;;;24.96;51.94;100789.94;5028396;28;20033;-71
2022/05/17 09:36:18;;;;;;;3.70;0.52;;;;;;;24.95;51.77;100790.97;5028065;28;20047;-71
2022/05/17 09:38:43;;;;;;;0.80;0.40;;;;;;;24.95;51.77;100786.44;5026888;28;20037;-74
2022/05/17 09:41:12;;;;;;;1.90;0.40;;;;;;;24.95;51.32;100786.44;5026634;28;20033;-73
2022/05/17 09:43:44;;;;;;;1.55;0.50;;;;;;;24.95;51.37;100777.63;5008520;28;20466;-72
2022/05/17 09:46:15;;;;;;;2.45;0.45;;;;;;;24.95;51.24;100772.31;5008447;28;20037;-72
2022/05/17 09:54:46;;;;;;;1.58;0.60;;;;;;;24.91;51.17;100776.47;5015503;28;20053;-74
2022/05/17 09:57:18;;;;;;;2.63;0.88;;;;;;;24.92;51.21;100768.25;5028059;28;20022;-74
2022/05/17 09:59:45;;;;;;;1.33;0.50;;;;;;;24.93;51.33;100771.72;5030316;28;20112;-74
2022/05/17 10:02:29;;;;;;;3.13;0.55;;;;;;;24.89;50.97;100774.03;5030819;28;20030;-74
2022/05/17 10:04:58;;;;;;;1.50;0.40;;;;;;;24.91;50.82;100773.81;5029936;28;20036;-73
2022/05/17 10:07:28;;;;;;;2.90;0.70;;;;;;;24.91;50.60;100771.13;5029741;28;20049;-72
2022/05/17 10:09:53;;;;;;;1.17;0.40;;;;;;;24.91;50.32;100771.13;5030329;28;20449;-75
2022/05/17 10:12:27;;;;;;;1.40;0.40;;;;;;;24.90;50.23;100766.84;5028107;28;20057;-72
2022/05/17 10:14:56;;;;;;;1.42;0.40;;;;;;;24.89;49.85;100763.38;5029309;28;20517;-74
2022/05/17 10:17:55;;;;;;;1.38;0.40;;;;;;;24.87;49.79;100754.81;5029098;28;20025;-73
2022/05/17 10:20:26;;;;;;;1.10;0.60;;;;;;;24.88;49.78;100756.41;5030384;28;20040;-73
2022/05/17 10:23:05;;;;;;;1.10;0.40;;;;;;;24.88;49.41;100760.94;5031999;28;20497;-73
2022/05/17 10:25:54;;;;;;;1.95;0.40;;;;;;;24.88;49.69;100756.41;5032275;28;20504;-73
2022/05/17 10:28:48;;;;;;;2.08;0.40;;;;;;;24.87;49.72;100757.47;5032102;28;20045;-73
2022/05/17 10:31:20;;;;;;;0.70;0.47;;;;;;;24.91;49.52;100755.97;5007190;28;20057;-74
2022/05/17 10:33:56;;;;;;;3.03;0.30;;;;;;;24.93;49.66;100761.06;5012828;28;20044;-75
2022/05/17 10:36:26;;;;;;;0.80;0.40;;;;;;;24.94;49.71;100752.03;5011575;28;20487;-73
2022/05/17 10:39:06;;;;;;;1.42;0.57;;;;;;;24.94;49.68;100746.69;5015063;28;20060;-72
2022/05/17 10:41:32;;;;;;;2.58;0.40;;;;;;;24.96;49.81;100744.63;5012352;28;20030;-74
2022/05/17 10:43:58;;;;;;;0.88;0.30;;;;;;;24.98;49.74;100742.56;5010775;28;20030;-76
2022/05/17 10:46:30;;;;;;;2.38;0.40;;;;;;;24.99;49.53;100741.50;5007625;28;20040;-75
2022/05/17 10:49:06;;;;;;;2.17;0.30;;;;;;;24.97;49.48;100738.25;4999829;28;20053;-74
2022/05/17 10:52:06;;;;;;;1.33;0.40;;;;;;;24.95;49.30;100729.66;5010625;28;20040;-74
2022/05/17 10:55:12;;;;;;;0.88;0.40;;;;;;;24.97;49.40;100730.28;4909434;29;20044;-72
2022/05/17 10:57:58;;;;;;;1.60;0.65;;;;;;;24.96;49.41;100725.97;4910236;29;20071;-72
2022/05/17 11:00:35;;;;;;;2.15;0.40;;;;;;;24.96;49.34;100728.66;4911678;29;20048;-74
2022/05/17 11:04:02;;;;;;;0.75;0.30;;;;;;;24.94;49.33;100720.03;4905354;29;20044;-76
2022/05/17 11:06:32;;;;;;;1.15;0.60;;;;;;;24.94;48.95;100717.38;4812994;29;20050;-72
2022/05/17 11:09:28;;;;;;;1.67;0.50;;;;;;;24.94;49.21;100715.53;4816852;29;20166;-72
2022/05/17 11:12:09;;;;;;;;;;;;;;;24.87;48.93;100711.34;4819363;29;20073;-74
2022/05/17 11:14:57;;;;;;;2.67;0.43;;;;;;;24.87;49.33;100709.50;4816601;29;20332;-75
2022/05/17 11:17:50;;;;;;;2.22;0.47;;;;;;;24.89;49.22;100707.41;4807050;29;20111;-73
2022/05/17 11:20:38;;;;;;;1.88;0.40;;;;;;;24.92;49.22;100698.13;4815064;29;20484;-75
2022/05/17 11:23:28;;;;;;;0.90;0.40;;;;;;;24.91;49.16;100691.19;4834796;29;20048;-73
2022/05/17 11:26:18;;;;;;;0.73;0.40;;;;;;;24.93;49.09;100694.44;4818463;29;20042;-73
2022/05/17 11:29:03;;;;;;;1.70;0.60;;;;;;;24.95;49.06;100695.00;4863460;29;20396;-74
2022/05/17 11:31:29;;;;;;;1.48;0.40;;;;;;;24.95;48.76;100692.34;4948882;29;20058;-73
2022/05/17 11:34:40;;;;;;;0.73;0.40;;;;;;;24.95;49.01;100687.00;4947785;29;20034;-72
2022/05/17 11:37:27;;;;;;;1.98;0.30;;;;;;;24.95;48.85;100682.50;4944688;29;20055;-72
2022/05/17 11:39:53;;;;;;;1.75;0.50;;;;;;;24.96;48.88;100680.66;4929810;29;20423;-74
2022/05/17 11:42:29;;;;;;;1.33;0.45;;;;;;;24.96;48.69;100680.66;4992482;28;20124;-72
2022/05/17 11:44:56;;;;;;;0.65;0.30;;;;;;;24.97;48.82;100668.97;5025549;28;20108;-74
2022/05/17 11:47:54;;;;;;;0.60;0.30;;;;;;;24.96;48.47;100667.34;5029126;28;20576;-74
2022/05/17 11:50:42;;;;;;;1.33;0.40;;;;;;;24.97;48.71;100664.44;5028556;28;20465;-72
2022/05/17 11:53:23;;;;;;;3.05;0.40;;;;;;;24.94;48.08;100662.22;5032648;28;20112;-73